Time;durP1;ratioP1;P1;durP2;ratioP2;P2;SDS_P1;SDS_P2;PMS_P1;PMS_P2;Temp;Humidity;BMP_temperature;BMP_pressure;BME280_temperature;BME280_humidity;BME280_pressure;Samples;Min_cycle;Max_cycle;Signal;HPM_P1;HPM_P2
2023/05/06 00:01:32;;;;;;;4.87;4.43;;;14.50;99.90;;;;;;5034381;28;20427;-86
2023/05/06 00:03:58;;;;;;;6.18;4.70;;;14.50;99.90;;;;;;5052477;28;20919;-86
2023/05/06 00:06:23;;;;;;;4.80;4.30;;;14.50;99.90;;;;;;5029584;28;20500;-86
2023/05/06 00:08:49;;;;;;;4.60;4.30;;;14.50;99.90;;;;;;5026728;28;20474;-86
2023/05/06 00:11:14;;;;;;;6.80;5.00;;;14.50;99.90;;;;;;5047601;28;20408;-86
2023/05/06 00:13:40;;;;;;;5.40;4.90;;;14.50;99.90;;;;;;5034154;28;20393;-86
2023/05/06 00:16:06;;;;;;;5.30;4.90;;;14.50;99.90;;;;;;5033514;28;20420;-86
2023/05/06 00:18:32;;;;;;;5.28;4.78;;;14.50;99.90;;;;;;5034177;28;20381;-85
2023/05/06 00:20:58;;;;;;;5.00;4.60;;;14.60;99.90;;;;;;5051079;28;20452;-86
2023/05/06 00:23:23;;;;;;;4.82;4.43;;;14.50;99.90;;;;;;5052074;28;20399;-86
2023/05/06 00:25:49;;;;;;;5.40;4.45;;;14.50;99.90;;;;;;5033546;28;20405;-86
2023/05/06 00:28:14;;;;;;;4.70;4.30;;;14.50;99.90;;;;;;5033419;28;20401;-86
2023/05/06 00:30:40;;;;;;;6.13;5.00;;;14.40;99.90;;;;;;5029234;28;20426;-85
2023/05/06 00:33:06;;;;;;;6.00;4.60;;;14.50;99.90;;;;;;5033829;28;20472;-85
2023/05/06 00:35:31;;;;;;;5.07;4.67;;;14.40;99.90;;;;;;5032737;28;20421;-86
2023/05/06 00:38:05;;;;;;;5.20;4.80;;;14.40;99.90;;;;;;5032503;28;20390;-86
2023/05/06 00:40:31;;;;;;;4.30;4.00;;;14.40;99.90;;;;;;5033397;28;20420;-86
2023/05/06 00:42:56;;;;;;;5.57;4.70;;;14.30;99.90;;;;;;5051533;28;20458;-86
2023/05/06 00:45:23;;;;;;;4.70;4.30;;;14.50;99.90;;;;;;5050597;28;20405;-86
2023/05/06 00:47:50;;;;;;;4.70;4.30;;;14.40;99.90;;;;;;5050886;28;20397;-86
2023/05/06 00:50:15;;;;;;;5.47;4.97;;;14.40;99.90;;;;;;5033309;28;20945;-86
2023/05/06 00:52:41;;;;;;;5.20;4.70;;;14.30;99.90;;;;;;5033308;28;20425;-86
2023/05/06 00:55:07;;;;;;;5.03;4.63;;;14.30;99.90;;;;;;5033055;28;20393;-86
2023/05/06 00:57:32;;;;;;;5.10;4.60;;;14.30;99.90;;;;;;5032975;28;20960;-86
2023/05/06 00:59:58;;;;;;;5.43;4.93;;;14.20;99.90;;;;;;5051273;28;20472;-86
2023/05/06 01:02:24;;;;;;;5.70;5.20;;;14.20;99.90;;;;;;5033288;28;20404;-86
2023/05/06 01:04:50;;;;;;;4.70;4.40;;;14.30;99.90;;;;;;5050713;28;20385;-86
2023/05/06 01:07:39;;;;;;;5.90;5.30;;;14.20;99.90;;;;;;5032334;28;20394;-86
2023/05/06 01:10:25;;;;;;;4.95;4.55;;;14.20;99.90;;;;;;5051076;28;20859;-86
2023/05/06 01:13:02;;;;;;;4.32;3.92;;;14.10;99.90;;;;;;5050509;28;20393;-85
2023/05/06 01:15:44;;;;;;;5.00;4.60;;;14.20;99.90;;;;;;5034067;28;20399;-86
2023/05/06 01:18:12;;;;;;;4.90;4.50;;;14.20;99.90;;;;;;5033102;28;20386;-86
2023/05/06 01:20:40;;;;;;;5.07;4.57;;;14.20;99.90;;;;;;5032632;28;20454;-86
2023/05/06 01:23:11;;;;;;;5.40;4.90;;;14.20;99.90;;;;;;5050592;28;20382;-86
2023/05/06 01:25:37;;;;;;;5.10;4.70;;;14.30;99.90;;;;;;5032272;28;20481;-86
2023/05/06 01:28:05;;;;;;;6.03;5.00;;;14.20;99.90;;;;;;5031810;28;20879;-86
2023/05/06 01:30:38;;;;;;;8.30;5.67;;;14.20;99.90;;;;;;5017959;28;20579;-86
2023/05/06 01:33:13;;;;;;;6.18;5.68;;;14.20;99.90;;;;;;5051124;28;20386;-85
2023/05/06 01:36:08;;;;;;;6.70;5.30;;;14.20;99.90;;;;;;5047606;28;20492;-85
2023/05/06 01:38:44;;;;;;;8.40;4.72;;;14.20;99.90;;;;;;5040884;28;20488;-85
2023/05/06 01:41:14;;;;;;;6.10;5.50;;;14.20;99.90;;;;;;5050596;28;20389;-85
2023/05/06 01:43:43;;;;;;;5.30;4.63;;;14.20;99.90;;;;;;5050149;28;20476;-85
2023/05/06 01:46:15;;;;;;;4.95;4.55;;;14.20;99.90;;;;;;5050111;28;20409;-86
2023/05/06 01:48:44;;;;;;;5.10;4.70;;;14.20;99.90;;;;;;5034898;28;20389;-85
2023/05/06 01:51:09;;;;;;;5.10;4.70;;;14.10;99.90;;;;;;5054667;28;20494;-86
2023/05/06 01:53:35;;;;;;;5.13;4.63;;;14.10;99.90;;;;;;5036887;28;20927;-86
2023/05/06 01:56:00;;;;;;;5.00;4.60;;;14.00;99.90;;;;;;5035932;28;20393;-86
2023/05/06 01:58:26;;;;;;;6.70;4.90;;;13.90;99.90;;;;;;5036290;28;20389;-86
2023/05/06 02:00:51;;;;;;;5.10;4.70;;;13.90;99.90;;;;;;5054628;28;20420;-86
2023/05/06 02:03:17;;;;;;;5.53;4.60;;;13.80;99.90;;;;;;5054274;28;21146;-86
2023/05/06 02:05:43;;;;;;;6.13;5.10;;;13.80;99.90;;;;;;5033599;28;20408;-86
2023/05/06 02:08:09;;;;;;;5.80;5.30;;;13.90;99.90;;;;;;5045462;28;20405;-86
2023/05/06 02:10:34;;;;;;;7.20;5.47;;;13.80;99.90;;;;;;5036051;28;20428;-86
2023/05/06 02:13:00;;;;;;;5.10;4.60;;;13.70;99.90;;;;;;5035638;28;20400;-86
2023/05/06 02:15:25;;;;;;;5.70;5.20;;;13.60;99.90;;;;;;5053321;28;20451;-86
2023/05/06 02:17:51;;;;;;;5.65;5.10;;;13.70;99.90;;;;;;5035580;28;20756;-86
2023/05/06 02:20:16;;;;;;;5.68;5.07;;;13.70;99.90;;;;;;5035866;28;20844;-86
2023/05/06 02:22:42;;;;;;;5.50;5.00;;;13.70;99.90;;;;;;5035640;28;20396;-86
2023/05/06 02:25:08;;;;;;;5.70;5.20;;;13.80;99.90;;;;;;5053572;28;20407;-86
2023/05/06 02:27:33;;;;;;;7.88;5.80;;;13.80;99.90;;;;;;5035321;28;20448;-86
2023/05/06 02:29:59;;;;;;;7.35;5.75;;;13.80;99.90;;;;;;5035752;28;20393;-86
2023/05/06 02:32:24;;;;;;;7.50;5.50;;;13.80;99.90;;;;;;5023982;28;20386;-86
2023/05/06 02:34:52;;;;;;;5.57;5.07;;;13.80;99.90;;;;;;5030486;28;20942;-86
2023/05/06 02:37:17;;;;;;;6.20;5.60;;;13.80;99.90;;;;;;5035401;28;20378;-86
2023/05/06 02:39:43;;;;;;;5.20;4.80;;;13.80;99.90;;;;;;5036210;28;20396;-86
2023/05/06 02:42:11;;;;;;;6.15;4.80;;;13.80;99.90;;;;;;5053481;28;20389;-86
2023/05/06 02:44:37;;;;;;;6.40;5.80;;;13.80;99.90;;;;;;5036150;28;20377;-86
2023/05/06 02:47:02;;;;;;;5.50;5.00;;;13.80;99.90;;;;;;5035635;28;20405;-86
2023/05/06 02:49:28;;;;;;;6.50;5.80;;;13.80;99.90;;;;;;5035323;28;20384;-86
2023/05/06 02:51:54;;;;;;;7.07;5.60;;;13.80;99.90;;;;;;5035100;28;20405;-86
2023/05/06 02:54:19;;;;;;;5.80;5.40;;;13.80;99.90;;;;;;5035516;28;20452;-86
2023/05/06 02:56:45;;;;;;;5.83;5.33;;;13.80;99.90;;;;;;5034783;28;20440;-86
2023/05/06 02:59:10;;;;;;;6.07;5.47;;;13.70;99.90;;;;;;5052176;28;20875;-86
2023/05/06 03:01:36;;;;;;;6.00;5.50;;;13.80;99.90;;;;;;5035139;28;20378;-86
2023/05/06 03:04:02;;;;;;;6.03;5.00;;;13.70;99.90;;;;;;5035633;28;20469;-86
2023/05/06 03:06:28;;;;;;;6.00;5.47;;;13.70;99.90;;;;;;5035170;28;20400;-85
2023/05/06 03:08:53;;;;;;;5.50;5.00;;;13.60;99.90;;;;;;5034677;28;20393;-86
2023/05/06 03:11:18;;;;;;;6.20;5.65;;;13.60;99.90;;;;;;5052423;28;20382;-86
2023/05/06 03:13:44;;;;;;;5.43;5.03;;;13.70;99.90;;;;;;5052855;28;20936;-86
2023/05/06 03:16:13;;;;;;;5.30;4.90;;;13.60;99.90;;;;;;5035719;28;20504;-85
2023/05/06 03:18:39;;;;;;;5.78;5.18;;;13.60;99.90;;;;;;5036340;28;20909;-85
2023/05/06 03:21:04;;;;;;;6.40;5.43;;;13.70;99.90;;;;;;5034983;28;20389;-85
2023/05/06 03:23:30;;;;;;;5.40;4.90;;;13.70;99.90;;;;;;5034597;28;20393;-86
2023/05/06 03:25:56;;;;;;;5.88;5.47;;;13.70;99.90;;;;;;5052200;28;20393;-85
2023/05/06 03:28:21;;;;;;;6.65;5.35;;;13.80;99.90;;;;;;5035140;28;20403;-85
2023/05/06 03:30:47;;;;;;;6.10;5.50;;;13.70;99.90;;;;;;5035177;28;20400;-86
2023/05/06 03:33:13;;;;;;;6.23;5.63;;;13.80;99.90;;;;;;5034436;28;20387;-85
2023/05/06 03:35:38;;;;;;;5.50;5.10;;;13.80;99.90;;;;;;5037396;28;20425;-86
2023/05/06 03:38:04;;;;;;;5.57;5.13;;;13.70;99.90;;;;;;5022671;28;20394;-85
2023/05/06 03:40:30;;;;;;;6.55;5.35;;;13.70;99.90;;;;;;5049371;28;20389;-85
2023/05/06 03:42:56;;;;;;;5.20;4.80;;;13.60;99.90;;;;;;5038663;28;20403;-86
2023/05/06 03:45:21;;;;;;;5.13;4.72;;;13.50;99.90;;;;;;5014922;28;20394;-86
2023/05/06 03:47:47;;;;;;;5.60;4.97;;;13.50;99.90;;;;;;5032565;28;20757;-86
2023/05/06 03:50:12;;;;;;;5.77;5.17;;;13.50;99.90;;;;;;5028582;28;20474;-86
2023/05/06 03:52:38;;;;;;;8.07;5.82;;;13.40;99.90;;;;;;5034168;28;20431;-85
2023/05/06 03:55:04;;;;;;;6.00;5.50;;;13.40;99.90;;;;;;5034282;28;20401;-85
2023/05/06 03:57:29;;;;;;;6.03;5.50;;;13.40;99.90;;;;;;5033881;28;20495;-86
2023/05/06 03:59:55;;;;;;;6.83;6.23;;;13.40;99.90;;;;;;5029871;28;20432;-86
2023/05/06 04:02:20;;;;;;;6.20;5.60;;;13.40;99.90;;;;;;5040989;28;20786;-85
2023/05/06 04:04:46;;;;;;;5.10;4.70;;;13.40;99.90;;;;;;5037802;28;20400;-85
2023/05/06 04:07:11;;;;;;;6.03;5.43;;;13.40;99.90;;;;;;5033876;28;20373;-85
2023/05/06 04:09:37;;;;;;;8.80;5.40;;;13.40;99.90;;;;;;5034516;28;20408;-85
2023/05/06 04:12:02;;;;;;;5.93;5.33;;;13.50;99.90;;;;;;5036451;28;20883;-85
2023/05/06 04:14:28;;;;;;;6.18;5.68;;;13.50;99.90;;;;;;5034281;28;20469;-85
2023/05/06 04:16:53;;;;;;;6.13;5.60;;;13.60;99.90;;;;;;5052533;28;20463;-85
2023/05/06 04:19:20;;;;;;;5.87;5.30;;;13.60;99.90;;;;;;5051933;28;20514;-85
2023/05/06 04:21:45;;;;;;;5.32;4.82;;;13.60;99.90;;;;;;5051968;28;20397;-85
2023/05/06 04:24:14;;;;;;;5.30;4.80;;;13.50;99.90;;;;;;5053438;28;20386;-85
2023/05/06 04:26:40;;;;;;;6.68;6.05;;;13.60;99.90;;;;;;5053891;28;20404;-85
2023/05/06 04:29:06;;;;;;;5.90;5.30;;;13.70;99.90;;;;;;5060011;28;20386;-85
2023/05/06 04:31:33;;;;;;;7.50;6.05;;;13.70;99.90;;;;;;5043890;28;20397;-86
2023/05/06 04:33:59;;;;;;;5.60;5.20;;;13.60;99.90;;;;;;5051656;28;20397;-80
2023/05/06 04:36:25;;;;;;;5.30;4.90;;;13.60;99.90;;;;;;5049411;28;20409;-80
2023/05/06 04:38:52;;;;;;;5.00;4.60;;;13.60;99.90;;;;;;5067674;28;20389;-82
2023/05/06 04:41:17;;;;;;;5.10;4.70;;;13.50;99.90;;;;;;5048846;28;20414;-80
2023/05/06 04:43:43;;;;;;;5.18;4.78;;;13.60;99.90;;;;;;5066925;28;20392;-80
2023/05/06 04:46:09;;;;;;;5.50;5.10;;;13.50;99.90;;;;;;5048854;28;20433;-81
2023/05/06 04:48:35;;;;;;;5.17;4.77;;;13.60;99.90;;;;;;5048291;28;20492;-80
2023/05/06 04:51:03;;;;;;;6.88;5.20;;;13.60;99.90;;;;;;5046651;28;20386;-81
2023/05/06 04:53:28;;;;;;;4.90;4.50;;;13.50;99.90;;;;;;5061907;28;20417;-82
2023/05/06 04:55:54;;;;;;;6.63;5.03;;;13.50;99.90;;;;;;5062021;28;20412;-82
2023/05/06 04:58:20;;;;;;;6.50;5.40;;;13.40;99.90;;;;;;5045161;28;20894;-82
2023/05/06 05:00:45;;;;;;;6.20;5.60;;;13.50;99.90;;;;;;5045528;28;20429;-82
2023/05/06 05:03:11;;;;;;;6.00;5.40;;;13.60;99.90;;;;;;5062903;28;20397;-82
2023/05/06 05:05:36;;;;;;;6.87;6.27;;;13.50;99.90;;;;;;5043422;28;20417;-82
2023/05/06 05:08:02;;;;;;;5.87;5.40;;;13.60;99.90;;;;;;5044923;28;20425;-82
2023/05/06 05:10:27;;;;;;;6.50;5.60;;;13.60;99.90;;;;;;5061600;28;20385;-82
2023/05/06 05:12:53;;;;;;;6.40;5.90;;;13.60;99.90;;;;;;5043431;28;20405;-82
2023/05/06 05:15:20;;;;;;;6.00;5.60;;;13.60;99.90;;;;;;5060721;28;20448;-82
2023/05/06 05:17:46;;;;;;;6.00;5.20;;;13.80;99.90;;;;;;5043201;28;20393;-82
2023/05/06 05:20:11;;;;;;;7.70;5.35;;;13.80;99.90;;;;;;5044390;28;20461;-82
2023/05/06 05:22:37;;;;;;;5.70;4.65;;;13.80;99.90;;;;;;5046438;28;20461;-82
2023/05/06 05:25:03;;;;;;;5.57;5.07;;;13.80;99.90;;;;;;5067879;28;20887;-82
2023/05/06 05:27:29;;;;;;;5.68;5.18;;;13.80;99.90;;;;;;5075731;28;20443;-82
2023/05/06 05:29:55;;;;;;;4.88;4.47;;;13.80;99.90;;;;;;5072888;28;20436;-81
2023/05/06 05:32:21;;;;;;;5.82;4.70;;;13.90;99.90;;;;;;5052022;28;20375;-82
2023/05/06 05:34:46;;;;;;;4.70;4.30;;;13.90;99.90;;;;;;5060917;28;20391;-82
2023/05/06 05:37:12;;;;;;;6.47;4.97;;;14.00;99.90;;;;;;5068677;28;20401;-82
2023/05/06 05:39:38;;;;;;;5.15;4.65;;;14.00;99.90;;;;;;5048280;28;20759;-82
2023/05/06 05:42:03;;;;;;;5.40;4.90;;;14.10;99.90;;;;;;5070893;28;20389;-82
2023/05/06 05:44:29;;;;;;;5.93;5.03;;;14.00;99.90;;;;;;5053709;28;20389;-82
2023/05/06 05:46:54;;;;;;;5.90;5.20;;;14.20;99.90;;;;;;5053721;28;20408;-83
2023/05/06 05:49:20;;;;;;;5.28;4.82;;;14.30;99.90;;;;;;5046393;28;20393;-82
2023/05/06 05:51:46;;;;;;;7.93;5.30;;;14.30;99.90;;;;;;5064060;28;20387;-82
2023/05/06 05:54:11;;;;;;;5.00;4.60;;;14.30;99.90;;;;;;5030955;28;20394;-82
2023/05/06 05:56:37;;;;;;;5.72;4.63;;;14.30;99.90;;;;;;5049896;28;20470;-82
2023/05/06 05:59:02;;;;;;;5.37;4.87;;;14.40;99.90;;;;;;5055775;28;20567;-83
2023/05/06 06:01:28;;;;;;;4.70;4.30;;;14.40;99.90;;;;;;5070417;28;20388;-82
2023/05/06 06:03:54;;;;;;;4.75;4.30;;;14.40;99.90;;;;;;5069281;28;20392;-82
2023/05/06 06:06:20;;;;;;;5.40;4.77;;;14.50;99.90;;;;;;5069023;28;20385;-82
2023/05/06 06:08:46;;;;;;;5.03;4.63;;;14.50;99.90;;;;;;5070619;28;20381;-82
2023/05/06 06:11:11;;;;;;;6.00;4.70;;;14.50;99.90;;;;;;5070032;28;20396;-82
2023/05/06 06:13:37;;;;;;;6.35;4.78;;;14.60;99.90;;;;;;5070404;28;20997;-82
2023/05/06 06:16:03;;;;;;;5.00;4.60;;;14.70;99.90;;;;;;5052476;28;20432;-83
2023/05/06 06:18:29;;;;;;;5.22;4.80;;;14.80;99.90;;;;;;5052485;28;20384;-82
2023/05/06 06:20:55;;;;;;;6.03;5.43;;;14.60;99.90;;;;;;5051546;28;20391;-82
2023/05/06 06:23:20;;;;;;;7.60;5.80;;;14.70;99.90;;;;;;5069979;28;20392;-83
2023/05/06 06:25:46;;;;;;;5.07;4.57;;;14.90;99.90;;;;;;5068804;28;20385;-82
2023/05/06 06:28:11;;;;;;;5.90;4.43;;;15.00;99.90;;;;;;5068348;28;20443;-82
2023/05/06 06:30:37;;;;;;;4.75;4.35;;;14.90;99.90;;;;;;5050188;28;20403;-82
2023/05/06 06:33:03;;;;;;;5.20;4.70;;;14.90;99.90;;;;;;5060737;28;20427;-82
2023/05/06 06:35:28;;;;;;;5.27;4.87;;;15.00;99.90;;;;;;5029962;28;20458;-82
2023/05/06 06:37:54;;;;;;;5.43;4.93;;;15.20;99.90;;;;;;5053856;28;20449;-81
2023/05/06 06:40:21;;;;;;;4.80;4.40;;;15.20;99.90;;;;;;5035959;28;20385;-82
2023/05/06 06:42:46;;;;;;;4.60;4.20;;;15.20;99.90;;;;;;5060592;28;20421;-81
2023/05/06 06:45:13;;;;;;;5.27;4.80;;;15.40;99.90;;;;;;5045433;28;20817;-83
2023/05/06 06:47:38;;;;;;;5.93;5.43;;;15.50;99.90;;;;;;5064010;28;20879;-81
2023/05/06 06:50:05;;;;;;;7.20;6.50;;;15.60;99.90;;;;;;5046584;28;20397;-81
2023/05/06 06:52:31;;;;;;;9.02;7.20;;;15.50;99.90;;;;;;5055590;28;20398;-81
2023/05/06 06:54:56;;;;;;;7.68;6.97;;;15.40;99.90;;;;;;5058551;28;20397;-81
2023/05/06 06:57:22;;;;;;;7.57;6.87;;;15.40;99.90;;;;;;5062160;28;20600;-81
2023/05/06 06:59:49;;;;;;;7.50;6.90;;;15.50;99.90;;;;;;5062326;28;20384;-82
2023/05/06 07:02:14;;;;;;;7.50;6.78;;;15.30;99.90;;;;;;5048228;28;20389;-82
2023/05/06 07:04:40;;;;;;;7.77;6.97;;;15.50;99.90;;;;;;5057518;28;20397;-82
2023/05/06 07:07:05;;;;;;;7.60;6.90;;;15.50;99.90;;;;;;5050580;28;20394;-82
2023/05/06 07:09:31;;;;;;;7.80;7.00;;;15.70;99.90;;;;;;5058017;28;20404;-82
2023/05/06 07:11:57;;;;;;;7.20;6.60;;;15.70;99.90;;;;;;5050090;28;20435;-82
2023/05/06 07:14:24;;;;;;;7.45;6.78;;;15.50;99.90;;;;;;5057134;28;20896;-81
2023/05/06 07:16:50;;;;;;;7.47;6.78;;;15.70;99.90;;;;;;5050929;28;21059;-81
2023/05/06 07:19:15;;;;;;;8.52;7.63;;;15.70;99.90;;;;;;5031701;28;20387;-81
2023/05/06 07:21:41;;;;;;;9.50;7.40;;;15.50;99.90;;;;;;5040902;28;20377;-82
2023/05/06 07:24:07;;;;;;;9.47;7.70;;;15.50;99.90;;;;;;5047774;28;20405;-81
2023/05/06 07:26:35;;;;;;;7.75;7.15;;;15.50;99.90;;;;;;5054457;28;20799;-82
2023/05/06 07:29:00;;;;;;;9.38;8.52;;;15.60;99.90;;;;;;5031505;28;20387;-82
2023/05/06 07:31:26;;;;;;;8.25;7.57;;;15.60;99.90;;;;;;5056844;28;20415;-81
2023/05/06 07:33:51;;;;;;;7.80;7.20;;;15.70;99.90;;;;;;5061052;28;20397;-82
2023/05/06 07:36:17;;;;;;;8.07;7.40;;;15.70;99.90;;;;;;5045401;28;20417;-83
2023/05/06 07:38:42;;;;;;;8.55;7.60;;;15.70;99.90;;;;;;5047845;28;20861;-83
2023/05/06 07:41:08;;;;;;;8.80;8.00;;;15.60;99.90;;;;;;5046343;28;20387;-83
2023/05/06 07:43:33;;;;;;;7.90;7.20;;;15.70;99.90;;;;;;5062669;28;20393;-83
2023/05/06 07:46:02;;;;;;;7.93;7.23;;;15.60;99.90;;;;;;5047124;28;20853;-82
2023/05/06 07:48:28;;;;;;;8.02;7.32;;;15.70;99.90;;;;;;5055609;28;20409;-81
2023/05/06 07:50:54;;;;;;;7.95;7.07;;;15.80;99.90;;;;;;5045493;28;20460;-83
2023/05/06 07:53:19;;;;;;;7.20;6.50;;;15.80;99.90;;;;;;5060404;28;20484;-82
2023/05/06 07:55:45;;;;;;;7.97;7.28;;;15.80;99.90;;;;;;5044582;28;20972;-82
2023/05/06 07:58:11;;;;;;;8.20;7.50;;;15.80;99.90;;;;;;5046345;28;20413;-83
2023/05/06 08:00:36;;;;;;;8.00;6.70;;;15.90;99.90;;;;;;5050134;28;20402;-83
2023/05/06 08:03:02;;;;;;;7.00;6.40;;;16.00;99.90;;;;;;5043041;28;20481;-84
2023/05/06 08:05:28;;;;;;;8.25;6.35;;;16.20;99.90;;;;;;5053056;28;20752;-84
2023/05/06 08:07:54;;;;;;;7.32;6.63;;;16.30;99.90;;;;;;5032081;28;20400;-84
2023/05/06 08:10:21;;;;;;;7.95;7.15;;;16.20;99.90;;;;;;5043018;28;20402;-85
2023/05/06 08:12:46;;;;;;;7.03;6.40;;;16.40;99.90;;;;;;5039959;28;20453;-83
2023/05/06 08:15:12;;;;;;;7.13;6.53;;;16.40;99.90;;;;;;5035877;28;20417;-83
2023/05/06 08:17:38;;;;;;;7.40;6.67;;;16.30;99.90;;;;;;5035893;28;20419;-83
2023/05/06 08:20:04;;;;;;;8.35;6.35;;;16.30;99.90;;;;;;5048971;28;20886;-83
2023/05/06 08:22:29;;;;;;;6.70;6.20;;;16.30;99.90;;;;;;5042140;28;20379;-84
2023/05/06 08:24:56;;;;;;;7.38;6.30;;;16.40;99.90;;;;;;5021288;28;20387;-83
2023/05/06 08:27:21;;;;;;;6.40;5.80;;;16.40;99.90;;;;;;5022146;28;20398;-84
2023/05/06 08:29:47;;;;;;;7.65;6.95;;;16.40;99.90;;;;;;5013588;28;20403;-84
2023/05/06 08:32:13;;;;;;;7.27;6.30;;;16.40;99.90;;;;;;5043047;28;20387;-85
2023/05/06 08:34:38;;;;;;;6.00;5.20;;;16.60;99.90;;;;;;5034712;28;20446;-84
2023/05/06 08:37:04;;;;;;;6.63;5.68;;;16.80;99.90;;;;;;5051941;28;20463;-83
2023/05/06 08:39:30;;;;;;;6.40;5.90;;;16.90;99.90;;;;;;5053911;28;20392;-83
2023/05/06 08:41:58;;;;;;;9.20;5.80;;;17.10;99.90;;;;;;5046654;28;20752;-83
2023/05/06 08:44:24;;;;;;;5.90;5.30;;;17.20;99.90;;;;;;5034466;28;20462;-84
2023/05/06 08:46:50;;;;;;;5.95;5.35;;;17.20;99.90;;;;;;5049573;28;20392;-84
2023/05/06 08:49:16;;;;;;;5.25;4.85;;;17.30;99.90;;;;;;5032080;28;20416;-83
2023/05/06 08:51:43;;;;;;;5.20;4.70;;;17.30;99.90;;;;;;5029765;28;20402;-84
2023/05/06 08:54:10;;;;;;;8.10;4.35;;;17.30;99.90;;;;;;5027578;28;20761;-85
2023/05/06 08:56:38;;;;;;;5.82;5.32;;;17.40;99.90;;;;;;5029440;28;20404;-81
2023/05/06 08:59:07;;;;;;;5.40;4.90;;;17.50;99.90;;;;;;5019487;28;20871;-84
2023/05/06 09:01:34;;;;;;;6.35;4.90;;;17.50;99.90;;;;;;5027785;28;20461;-84
2023/05/06 09:04:02;;;;;;;5.60;4.75;;;17.50;99.90;;;;;;5044488;28;20414;-84
2023/05/06 09:06:28;;;;;;;8.30;6.40;;;17.20;99.90;;;;;;5039420;28;20415;-84
2023/05/06 09:08:53;;;;;;;6.40;5.80;;;17.20;99.90;;;;;;5042739;28;20390;-85
2023/05/06 09:11:28;;;;;;;8.90;6.17;;;17.00;99.90;;;;;;5038076;28;20409;-83
2023/05/06 09:14:11;;;;;;;6.30;5.70;;;17.00;99.90;;;;;;5039741;28;20441;-84
2023/05/06 09:16:38;;;;;;;7.30;5.67;;;17.20;99.90;;;;;;5035156;28;20889;-84
2023/05/06 09:19:04;;;;;;;6.10;5.50;;;17.50;99.90;;;;;;5017232;28;20426;-84
2023/05/06 09:21:50;;;;;;;5.20;4.75;;;17.60;99.90;;;;;;5044913;28;20483;-83
2023/05/06 09:24:16;;;;;;;5.07;4.57;;;17.70;99.90;;;;;;5033884;28;20390;-84
2023/05/06 09:29:07;;;;;;;5.07;4.60;;;17.60;99.90;;;;;;5101638;22;20451;-81
2023/05/06 09:31:40;;;;;;;4.70;4.20;;;17.50;99.90;;;;;;5076319;28;20383;-82
2023/05/06 09:34:06;;;;;;;4.87;4.47;;;17.60;99.90;;;;;;5076524;28;20558;-82
2023/05/06 09:36:31;;;;;;;4.73;4.40;;;17.50;99.90;;;;;;5075804;28;20467;-83
2023/05/06 09:38:57;;;;;;;4.85;4.35;;;17.60;99.90;;;;;;5071172;28;20405;-83
2023/05/06 09:41:24;;;;;;;4.30;3.90;;;18.10;99.90;;;;;;5067086;28;20470;-82
2023/05/06 09:43:54;;;;;;;5.30;4.10;;;18.20;99.90;;;;;;5065515;28;20386;-83
2023/05/06 09:46:21;;;;;;;4.50;4.00;;;18.10;99.90;;;;;;5070103;28;20750;-82
2023/05/06 09:48:50;;;;;;;6.35;3.92;;;18.00;99.90;;;;;;5058681;28;20407;-83
2023/05/06 09:51:15;;;;;;;4.40;4.00;;;18.20;99.90;;;;;;5072713;28;20395;-82
2023/05/06 09:53:43;;;;;;;3.70;3.10;;;18.50;99.90;;;;;;5075769;28;20407;-82
2023/05/06 09:56:09;;;;;;;3.10;2.90;;;18.50;99.90;;;;;;5065298;28;20403;-83
2023/05/06 09:58:36;;;;;;;3.20;2.80;;;18.80;99.90;;;;;;5061012;28;21096;-83
2023/05/06 10:01:03;;;;;;;2.90;2.65;;;18.90;99.90;;;;;;5068971;28;20391;-83
2023/05/06 10:03:29;;;;;;;2.90;2.70;;;19.00;96.30;;;;;;5055972;28;20390;-83
2023/05/06 10:06:00;;;;;;;3.10;2.80;;;19.10;99.90;;;;;;5046907;28;20407;-82
2023/05/06 10:08:26;;;;;;;4.10;3.38;;;18.90;99.90;;;;;;5071686;28;20916;-82
2023/05/06 10:10:52;;;;;;;4.72;3.28;;;19.00;99.90;;;;;;5060299;28;20399;-82
2023/05/06 10:13:23;;;;;;;4.00;3.50;;;19.00;99.90;;;;;;5066829;28;20405;-81
2023/05/06 10:15:50;;;;;;;4.03;3.27;;;18.90;99.90;;;;;;5062077;28;20427;-82
2023/05/06 10:18:17;;;;;;;3.70;2.85;;;19.40;99.90;;;;;;5078489;28;20388;-82
2023/05/06 10:20:43;;;;;;;3.10;2.80;;;19.60;99.90;;;;;;5059845;28;20819;-82
2023/05/06 10:23:14;;;;;;;3.78;3.38;;;19.50;99.90;;;;;;5059967;28;20738;-82
2023/05/06 10:25:42;;;;;;;3.53;3.23;;;19.30;99.90;;;;;;5059305;28;20475;-83
2023/05/06 10:28:09;;;;;;;4.33;3.60;;;19.10;96.20;;;;;;5079046;28;20391;-82
2023/05/06 10:30:37;;;;;;;4.68;3.10;;;19.20;99.90;;;;;;5077417;28;20480;-82
2023/05/06 10:33:10;;;;;;;3.17;2.60;;;19.40;92.60;;;;;;5072464;28;20905;-83
2023/05/06 10:35:57;;;;;;;5.63;3.00;;;19.60;90.90;;;;;;5057576;28;20452;-84
2023/05/06 10:38:33;;;;;;;3.33;2.80;;;19.80;52.90;;;;;;5070594;28;20442;-81
2023/05/06 10:40:59;;;;;;;2.83;2.53;;;19.70;56.40;;;;;;5065221;28;20393;-81
2023/05/06 10:43:31;;;;;;;3.15;2.60;;;19.60;68.20;;;;;;5074882;28;20380;-82
2023/05/06 10:46:04;;;;;;;2.92;2.63;;;19.70;49.90;;;;;;5052124;28;20482;-82
2023/05/06 10:48:30;;;;;;;4.40;2.58;;;19.90;59.90;;;;;;5050107;28;20393;-82
2023/05/06 10:51:15;;;;;;;4.03;2.30;;;20.00;45.30;;;;;;5087510;28;20885;-82
2023/05/06 10:54:05;;;;;;;2.47;2.28;;;20.10;31.90;;;;;;5044984;28;20379;-82
2023/05/06 10:56:36;;;;;;;3.20;2.30;;;20.10;37.10;;;;;;5087716;28;20408;-82
2023/05/06 10:59:09;;;;;;;2.50;2.30;;;20.30;99.90;;;;;;5071658;28;20403;-82
2023/05/06 11:01:37;;;;;;;3.30;2.50;;;20.20;45.30;;;;;;5063308;28;20460;-83
2023/05/06 11:04:08;;;;;;;3.00;2.38;;;20.10;48.60;;;;;;5063335;28;20395;-84
2023/05/06 11:06:41;;;;;;;2.30;2.10;;;20.70;33.10;;;;;;5043225;28;20463;-83
2023/05/06 11:09:21;;;;;;;3.00;2.40;;;20.70;26.50;;;;;;5068072;28;20476;-85
2023/05/06 11:12:00;;;;;;;2.40;2.10;;;20.80;26.30;;;;;;5059339;28;20396;-82
2023/05/06 11:14:34;;;;;;;3.35;2.60;;;20.60;24.00;;;;;;5079234;28;20492;-82
2023/05/06 11:17:08;;;;;;;2.78;2.20;;;20.90;25.30;;;;;;5059414;28;20561;-81
2023/05/06 11:19:36;;;;;;;3.00;2.70;;;20.90;23.30;;;;;;5059718;28;20407;-82
2023/05/06 11:22:03;;;;;;;3.22;2.10;;;20.50;22.90;;;;;;5058270;28;20392;-82
2023/05/06 11:24:42;;;;;;;2.53;2.30;;;20.90;30.00;;;;;;5076838;28;20769;-82
2023/05/06 11:27:10;;;;;;;2.53;2.20;;;21.10;21.10;;;;;;5056224;28;20499;-83
2023/05/06 11:29:36;;;;;;;2.20;2.00;;;21.20;23.80;;;;;;5076537;28;20394;-86
2023/05/06 11:32:04;;;;;;;2.15;1.95;;;23.20;16.90;;;;;;5074934;28;20400;-86
2023/05/06 11:34:31;;;;;;;2.28;2.08;;;21.50;15.60;;;;;;5077495;28;20423;-83
2023/05/06 11:37:08;;;;;;;2.72;2.22;;;21.40;16.90;;;;;;5057092;28;20410;-86
2023/05/06 11:39:34;;;;;;;2.03;1.90;;;20.90;63.00;;;;;;5059294;28;20405;-86
2023/05/06 11:42:05;;;;;;;3.10;2.20;;;20.90;45.80;;;;;;5076713;28;20459;-87
2023/05/06 11:44:33;;;;;;;3.03;1.98;;;20.90;32.60;;;;;;5072164;28;20943;-86
2023/05/06 11:47:01;;;;;;;2.85;2.55;;;20.80;36.50;;;;;;5054711;28;20829;-86
2023/05/06 11:49:27;;;;;;;2.47;2.28;;;20.60;38.50;;;;;;5036710;28;20396;-85
2023/05/06 11:51:54;;;;;;;2.92;2.20;;;22.30;16.80;;;;;;5057109;28;20854;-86
2023/05/06 11:54:26;;;;;;;2.53;2.00;;;22.70;7.20;;;;;;5058131;28;20407;-87
2023/05/06 11:56:55;;;;;;;2.25;1.90;;;23.10;3.50;;;;;;5062196;28;20411;-86
2023/05/06 11:59:31;;;;;;;2.40;1.90;;;23.30;1.00;;;;;;5067750;28;20389;-86
2023/05/06 12:01:59;;;;;;;2.67;1.80;;;22.90;4.50;;;;;;5062625;28;20389;-83
2023/05/06 12:04:25;;;;;;;3.10;1.90;;;22.50;1.00;;;;;;5058227;28;20447;-85
2023/05/06 12:06:50;;;;;;;1.80;1.70;;;21.50;4.90;;;;;;5067817;28;20394;-85
2023/05/06 12:09:16;;;;;;;2.67;1.80;;;22.40;8.00;;;;;;5061822;28;20443;-85
2023/05/06 12:11:43;;;;;;;2.05;1.77;;;22.70;6.30;;;;;;5067727;28;20475;-82
2023/05/06 12:14:09;;;;;;;1.75;1.60;;;22.50;9.60;;;;;;5049725;28;20877;-82
2023/05/06 12:16:36;;;;;;;2.25;1.60;;;22.90;7.60;;;;;;5062237;28;20459;-83
2023/05/06 12:19:03;;;;;;;3.63;1.77;;;23.00;1.80;;;;;;5053377;28;20455;-83
2023/05/06 12:21:29;;;;;;;1.83;1.55;;;23.70;1.00;;;;;;5067528;28;20844;-84
2023/05/06 12:23:59;;;;;;;1.90;1.60;;;24.20;1.00;;;;;;5068016;28;20453;-81
2023/05/06 12:26:30;;;;;;;2.05;1.85;;;24.10;1.00;;;;;;5063334;28;20383;-79
2023/05/06 12:29:10;;;;;;;2.28;1.70;;;24.30;1.00;;;;;;5063206;28;20400;-80
2023/05/06 12:31:36;;;;;;;1.70;1.60;;;24.30;1.00;;;;;;5081779;28;20374;-84
2023/05/06 12:34:03;;;;;;;2.55;1.95;;;23.50;1.00;;;;;;5067014;28;20411;-81
2023/05/06 12:36:31;;;;;;;2.70;1.80;;;24.10;1.00;;;;;;5049307;28;20411;-82
2023/05/06 12:38:59;;;;;;;3.10;1.52;;;23.90;1.00;;;;;;5048035;28;21086;-81
2023/05/06 12:41:41;;;;;;;3.60;1.90;;;24.20;1.00;;;;;;5063865;28;20458;-83
2023/05/06 12:44:32;;;;;;;1.70;1.60;;;24.30;1.00;;;;;;5044616;28;20753;-81
2023/05/06 12:46:59;;;;;;;1.90;1.80;;;24.00;1.00;;;;;;5040273;28;20486;-84
2023/05/06 12:49:25;;;;;;;2.20;1.90;;;23.30;1.00;;;;;;5070427;28;20382;-84
2023/05/06 12:52:09;;;;;;;2.30;1.70;;;24.30;1.00;;;;;;5061063;28;20403;-83